Ana Sayfa
METAR-TAF:

METAR-TAF

Havaalanları :

Coatesville, Pensilvanya, Amerika Birleşik Devletleri

Enlem: 39-58-44N, Boylam: 075-51-56W, yükseklik: 201 m

Güncel hava durumu gözlemi

Rapor saat 13:55 UTC de 18 dakika önce yapıldı.
Rüzgar doğu/güneydoğudan 4 kt
Sıcaklık -2°C
Nem 69%
Basınç 1033 hPa
Görüş mesafesi: 16.1 km
Açık gökyüzü

METAR: KMQS 081355Z AUTO 12004KT 10SM CLR M02/M07 A3051 RMK AO2

Saat: 09:13 (14:13 UTC)


TAF: eksik

4.000'den fazla havaalanı için hava durumu gözlemleri ve tahminleri (METAR ve TAF raporları).

Kullanılabilir istasyonlar harita üzerinde sarı ve kırmızı noktalarla gösterilir.

İstasyonun adını görmek için fareyi noktanın üzerinde gezdirin.

Sonrasında hava gözlem ve tahminlerini görmek için tıklayın.

Haritayı değiştirmek için: yaklaştırmak için siyah artı işaretli yeşil düğmeye ve uzaklaştırmak için de eksi işaretli düğmeye hızla tıklayın; bitişik haritalar için yeşil okları kullanın.


METAR-TAF: